createdAt,value
2022-08-07T00:00:31.297Z,15.49
2022-08-07T00:04:33.038Z,15.43
2022-08-07T00:08:37.024Z,15.33
2022-08-07T00:13:00.346Z,15.29
2022-08-07T00:17:03.542Z,15.28
2022-08-07T00:21:55.410Z,15.26
2022-08-07T00:25:41.173Z,15.26
2022-08-07T00:29:42.984Z,15.28
2022-08-07T00:33:47.625Z,15.26
2022-08-07T00:37:49.575Z,15.26
2022-08-07T00:42:02.199Z,15.24
2022-08-07T00:46:07.905Z,15.18
2022-08-07T00:50:21.093Z,15.17
2022-08-07T00:54:32.535Z,15.10
2022-08-07T00:58:34.564Z,15.08
2022-08-07T01:02:36.287Z,15.02
2022-08-07T01:06:41.432Z,15.02
2022-08-07T01:10:48.252Z,15.01
2022-08-07T01:15:01.508Z,14.98
2022-08-07T01:19:18.130Z,14.90
2022-08-07T01:23:25.525Z,14.85
2022-08-07T01:27:41.187Z,14.79
2022-08-07T01:31:54.796Z,14.76
2022-08-07T01:36:06.440Z,14.77
2022-08-07T01:40:15.519Z,14.76
2022-08-07T01:44:27.394Z,14.72
2022-08-07T01:48:30.385Z,14.70
2022-08-07T01:52:35.130Z,14.68
2022-08-07T01:57:02.264Z,14.65
2022-08-07T02:01:25.363Z,14.63
2022-08-07T02:05:47.683Z,14.58
2022-08-07T02:10:00.675Z,14.55
2022-08-07T02:14:04.587Z,14.53
2022-08-07T02:18:12.624Z,14.50
2022-08-07T02:22:18.446Z,14.50
2022-08-07T02:26:32.716Z,14.46
2022-08-07T02:30:38.726Z,14.45
2022-08-07T02:34:48.818Z,14.41
2022-08-07T02:38:57.686Z,14.43
2022-08-07T02:43:07.757Z,14.41
2022-08-07T02:47:19.599Z,14.39
2022-08-07T02:51:51.827Z,14.34
2022-08-07T02:56:03.623Z,14.27
2022-08-07T03:00:10.354Z,14.25
2022-08-07T03:04:14.485Z,14.21
2022-08-07T03:08:18.771Z,14.22
2022-08-07T03:12:30.962Z,14.23
2022-08-07T03:16:38.883Z,14.23
2022-08-07T03:20:44.776Z,14.22
2022-08-07T03:24:46.975Z,14.22
2022-08-07T03:28:49.624Z,14.23
2022-08-07T03:32:58.675Z,14.26
2022-08-07T03:37:12.108Z,14.26
2022-08-07T03:41:18.599Z,14.21
2022-08-07T03:45:43.665Z,14.15
2022-08-07T03:49:53.339Z,14.09
2022-08-07T03:54:32.828Z,14.04
2022-08-07T03:59:07.381Z,14.03
2022-08-07T04:02:47.513Z,14.00
2022-08-07T04:07:16.565Z,13.98
2022-08-07T04:12:23.403Z,13.94
2022-08-07T04:15:45.390Z,13.87
2022-08-07T04:19:52.593Z,13.88
2022-08-07T04:24:07.491Z,13.86
2022-08-07T04:28:13.362Z,13.85
2022-08-07T04:32:16.476Z,13.79
2022-08-07T04:36:22.717Z,13.82
2022-08-07T04:40:31.371Z,13.89
2022-08-07T04:44:36.306Z,13.98
2022-08-07T04:49:25.611Z,14.08
2022-08-07T04:54:01.090Z,14.14
2022-08-07T04:58:34.821Z,14.21
2022-08-07T05:04:01.156Z,14.28
2022-08-07T05:08:18.061Z,14.35
2022-08-07T05:12:46.200Z,14.40
2022-08-07T05:17:05.970Z,14.47
2022-08-07T05:21:18.364Z,14.53
2022-08-07T05:26:10.797Z,14.65
2022-08-07T05:30:05.327Z,14.77
2022-08-07T05:34:11.915Z,14.92
2022-08-07T05:38:59.790Z,15.06
2022-08-07T05:42:39.863Z,15.21
2022-08-07T05:46:51.340Z,15.34
2022-08-07T05:51:01.190Z,15.48
2022-08-07T05:55:10.748Z,15.60
2022-08-07T05:59:19.220Z,15.70
2022-08-07T06:03:53.862Z,15.83
2022-08-07T06:08:14.918Z,15.96
2022-08-07T06:12:15.310Z,16.08
2022-08-07T06:16:18.822Z,16.20
2022-08-07T06:20:31.901Z,16.33
2022-08-07T06:24:57.981Z,16.42
2022-08-07T06:29:04.160Z,16.52
2022-08-07T06:33:09.911Z,16.62
2022-08-07T06:37:20.665Z,16.70
2022-08-07T06:42:00.504Z,16.81
2022-08-07T06:46:00.142Z,16.85
2022-08-07T06:50:04.022Z,16.93
2022-08-07T06:55:34.052Z,16.98
2022-08-07T06:58:37.405Z,17.04
2022-08-07T07:02:53.857Z,17.06
2022-08-07T07:07:01.165Z,17.13
2022-08-07T07:11:14.544Z,17.20
2022-08-07T07:15:35.742Z,17.31
2022-08-07T07:19:57.498Z,17.38
2022-08-07T07:24:08.443Z,17.43
2022-08-07T07:28:42.726Z,17.49
2022-08-07T07:32:42.671Z,17.57
2022-08-07T07:36:48.098Z,17.65
2022-08-07T07:41:02.238Z,17.68
2022-08-07T07:45:06.699Z,17.72
2022-08-07T07:50:31.632Z,17.76
2022-08-07T07:53:34.845Z,17.78
2022-08-07T07:57:50.230Z,17.80
2022-08-07T08:02:03.683Z,17.87
2022-08-07T08:06:08.015Z,17.90
2022-08-07T08:10:37.584Z,18.02
2022-08-07T08:14:38.550Z,18.11
2022-08-07T08:18:41.854Z,18.09
2022-08-07T08:23:08.384Z,18.10
2022-08-07T08:27:14.412Z,18.17
2022-08-07T08:31:58.442Z,18.21
2022-08-07T08:35:51.518Z,18.26
2022-08-07T08:39:58.316Z,18.35
2022-08-07T08:44:29.145Z,18.42
2022-08-07T08:48:46.710Z,18.51
2022-08-07T08:53:34.791Z,18.55
2022-08-07T08:58:02.970Z,18.57
2022-08-07T09:02:35.073Z,18.61
2022-08-07T09:07:11.271Z,18.61
2022-08-07T09:11:24.445Z,18.70
2022-08-07T09:16:25.456Z,18.71
2022-08-07T09:20:42.842Z,18.77
2022-08-07T09:25:17.180Z,18.77
2022-08-07T09:30:05.065Z,18.72
2022-08-07T09:34:21.505Z,18.79
2022-08-07T09:38:36.677Z,18.90
2022-08-07T09:43:08.315Z,18.90
2022-08-07T09:47:55.997Z,18.97
2022-08-07T09:52:34.093Z,19.01
2022-08-07T09:56:55.688Z,19.08
2022-08-07T10:01:51.152Z,19.12
2022-08-07T10:06:12.321Z,19.25
2022-08-07T10:10:39.702Z,19.31
2022-08-07T10:15:21.081Z,19.37
2022-08-07T10:19:44.018Z,19.34
2022-08-07T10:24:18.418Z,19.40
2022-08-07T10:28:49.607Z,19.43
2022-08-07T10:33:14.931Z,19.44
2022-08-07T10:38:00.948Z,19.46
2022-08-07T10:42:20.783Z,19.49
2022-08-07T10:46:32.559Z,19.52
2022-08-07T10:50:49.899Z,19.55
2022-08-07T10:55:01.579Z,19.61
2022-08-07T10:59:24.562Z,19.74
2022-08-07T11:03:52.566Z,19.80
2022-08-07T11:08:18.475Z,19.82
2022-08-07T11:12:37.898Z,19.84
2022-08-07T11:17:02.115Z,19.89
2022-08-07T11:21:14.958Z,19.97
2022-08-07T11:25:30.724Z,19.93
2022-08-07T11:30:18.040Z,19.95
2022-08-07T11:34:43.900Z,19.95
2022-08-07T11:39:01.942Z,19.96
2022-08-07T11:43:17.181Z,19.98
2022-08-07T11:48:18.150Z,20.06
2022-08-07T11:52:37.708Z,20.10
2022-08-07T11:57:03.780Z,20.18
2022-08-07T12:01:25.361Z,20.21
2022-08-07T12:05:58.389Z,20.27
2022-08-07T12:10:08.551Z,20.37
2022-08-07T12:14:27.574Z,20.39
2022-08-07T12:18:38.289Z,20.46
2022-08-07T12:23:37.176Z,20.54
2022-08-07T12:28:08.506Z,20.56
2022-08-07T12:32:42.008Z,20.64
2022-08-07T12:36:49.524Z,20.66
2022-08-07T12:40:55.328Z,20.75
2022-08-07T12:45:04.485Z,20.82
2022-08-07T12:49:44.802Z,20.82
2022-08-07T12:54:37.238Z,20.82
2022-08-07T12:58:43.871Z,20.77
2022-08-07T13:03:07.226Z,20.82
2022-08-07T13:08:11.900Z,20.88
2022-08-07T13:12:15.137Z,20.93
2022-08-07T13:16:40.302Z,20.95
2022-08-07T13:20:51.095Z,20.97
2022-08-07T13:25:00.472Z,20.93
2022-08-07T13:29:34.635Z,20.81
2022-08-07T13:34:34.509Z,20.74
2022-08-07T13:38:21.722Z,20.80
2022-08-07T13:42:26.794Z,20.73
2022-08-07T13:46:33.497Z,20.63
2022-08-07T13:50:45.096Z,20.57
2022-08-07T13:55:11.011Z,20.52
2022-08-07T13:59:23.778Z,20.51
2022-08-07T14:04:05.280Z,20.47
2022-08-07T14:07:54.423Z,20.47
2022-08-07T14:12:07.495Z,20.54
2022-08-07T14:16:16.113Z,20.62
2022-08-07T14:20:44.297Z,20.62
2022-08-07T14:24:51.469Z,20.61
2022-08-07T14:28:57.494Z,20.64
2022-08-07T14:37:36.042Z,20.70
2022-08-07T14:42:20.168Z,20.74
2022-08-07T14:46:02.645Z,20.78
2022-08-07T14:50:11.286Z,20.84
2022-08-07T14:54:31.039Z,20.89
2022-08-07T14:58:37.226Z,20.89
2022-08-07T15:02:46.427Z,20.91
2022-08-07T15:07:00.836Z,20.92
2022-08-07T15:11:15.382Z,20.97
2022-08-07T15:15:43.985Z,21.08
2022-08-07T15:20:31.381Z,21.11
2022-08-07T15:30:02.352Z,21.24
2022-08-07T15:33:20.149Z,21.30
2022-08-07T15:37:28.886Z,21.33
2022-08-07T15:42:46.331Z,21.35
2022-08-07T15:46:31.943Z,21.38
2022-08-07T15:51:08.128Z,21.32
2022-08-07T15:55:11.459Z,21.30
2022-08-07T15:59:20.243Z,21.23
2022-08-07T16:03:47.430Z,21.16
2022-08-07T16:08:30.668Z,21.11
2022-08-07T16:12:41.048Z,21.08
2022-08-07T16:18:00.834Z,21.08
2022-08-07T16:22:04.060Z,21.00
2022-08-07T16:26:59.612Z,20.88
2022-08-07T16:31:50.050Z,20.72
2022-08-07T16:36:01.327Z,20.64
2022-08-07T16:40:28.167Z,20.58
2022-08-07T16:45:24.620Z,20.56
2022-08-07T16:50:27.931Z,20.55
2022-08-07T16:54:33.068Z,20.62
2022-08-07T16:59:11.026Z,20.68
2022-08-07T17:03:58.379Z,20.65
2022-08-07T17:07:57.656Z,20.64
2022-08-07T17:12:33.757Z,20.64
2022-08-07T17:16:45.201Z,20.61
2022-08-07T17:20:58.064Z,20.64
2022-08-07T17:25:08.290Z,20.63
2022-08-07T17:30:14.824Z,20.64
2022-08-07T17:34:34.247Z,20.56
2022-08-07T17:38:58.895Z,20.42
2022-08-07T17:43:39.667Z,20.29
2022-08-07T17:48:17.107Z,20.23
2022-08-07T17:52:39.612Z,20.13
2022-08-07T17:57:18.458Z,20.04
2022-08-07T18:01:28.942Z,19.93
2022-08-07T18:06:01.633Z,19.81
2022-08-07T18:10:33.506Z,19.72
2022-08-07T18:14:46.380Z,19.73
2022-08-07T18:21:03.778Z,19.73
2022-08-07T18:23:43.031Z,19.67
2022-08-07T18:28:13.654Z,19.65
2022-08-07T18:33:11.023Z,19.56
2022-08-07T18:38:56.139Z,19.48
2022-08-07T18:42:12.757Z,19.43
2022-08-07T18:46:42.883Z,19.31
2022-08-07T18:50:47.714Z,19.20
2022-08-07T18:55:41.056Z,19.04
2022-08-07T18:59:59.135Z,18.96
2022-08-07T19:04:13.688Z,18.85
2022-08-07T19:08:26.785Z,18.84
2022-08-07T19:13:10.437Z,18.81
2022-08-07T19:18:00.961Z,18.75
2022-08-07T19:21:58.781Z,18.67
2022-08-07T19:26:24.722Z,18.64
2022-08-07T19:31:03.822Z,18.53
2022-08-07T19:35:01.453Z,18.43
2022-08-07T19:39:09.194Z,18.37
2022-08-07T19:43:22.080Z,18.29
2022-08-07T19:47:44.666Z,18.21
2022-08-07T19:52:00.368Z,18.14
2022-08-07T19:56:15.103Z,18.07
2022-08-07T20:00:34.702Z,18.02
2022-08-07T20:04:42.942Z,17.94
2022-08-07T20:08:51.846Z,17.86
2022-08-07T20:12:55.108Z,17.78
2022-08-07T20:16:58.541Z,17.72
2022-08-07T20:21:02.284Z,17.65
2022-08-07T20:25:19.279Z,17.57
2022-08-07T20:29:47.692Z,17.56
2022-08-07T20:33:56.838Z,17.53
2022-08-07T20:38:00.846Z,17.52
2022-08-07T20:42:08.759Z,17.50
2022-08-07T20:46:26.123Z,17.49
2022-08-07T20:50:33.371Z,17.48
2022-08-07T20:54:35.149Z,17.48
2022-08-07T20:58:41.906Z,17.46
2022-08-07T21:03:03.755Z,17.44
2022-08-07T21:07:14.654Z,17.39
2022-08-07T21:11:40.239Z,17.37
2022-08-07T21:16:00.350Z,17.36
2022-08-07T21:20:06.608Z,17.34
2022-08-07T21:24:24.930Z,17.33
2022-08-07T21:28:48.850Z,17.31
2022-08-07T21:33:13.047Z,17.28
2022-08-07T21:37:21.695Z,17.27
2022-08-07T21:41:38.331Z,17.24
2022-08-07T21:46:24.767Z,17.21
2022-08-07T21:50:51.883Z,17.18
2022-08-07T21:54:59.724Z,17.13
2022-08-07T21:59:19.479Z,17.12
2022-08-07T22:03:41.043Z,17.09
2022-08-07T22:07:58.483Z,17.06
2022-08-07T22:12:17.746Z,17.04
2022-08-07T22:16:42.654Z,17.02
2022-08-07T22:20:59.747Z,16.98
2022-08-07T22:25:13.689Z,16.96
2022-08-07T22:29:48.416Z,16.92
2022-08-07T22:33:58.624Z,16.90
2022-08-07T22:38:35.880Z,16.88
2022-08-07T22:42:40.215Z,16.85
2022-08-07T22:47:08.684Z,16.82
2022-08-07T22:51:37.955Z,16.79
2022-08-07T22:55:58.734Z,16.77
2022-08-07T23:00:07.879Z,16.76
2022-08-07T23:04:58.327Z,16.75
2022-08-07T23:10:03.487Z,16.72
2022-08-07T23:14:10.926Z,16.69
2022-08-07T23:19:11.274Z,16.68
2022-08-07T23:24:07.100Z,16.66
2022-08-07T23:28:21.377Z,16.62
2022-08-07T23:34:36.301Z,16.56
2022-08-07T23:38:03.896Z,16.53
2022-08-07T23:42:34.270Z,16.50
2022-08-07T23:47:12.125Z,16.47
2022-08-07T23:53:05.505Z,16.44
2022-08-07T23:55:56.185Z,16.40
